createdAt,value
2018-02-08T00:00:43.576Z,80.20
2018-02-08T00:03:11.028Z,80.20
2018-02-08T00:05:38.464Z,80.20
2018-02-08T00:08:05.962Z,80.20
2018-02-08T00:10:33.386Z,80.90
2018-02-08T00:13:00.828Z,80.30
2018-02-08T00:15:29.140Z,80.40
2018-02-08T00:17:56.572Z,80.40
2018-02-08T00:20:24.063Z,80.40
2018-02-08T00:22:51.508Z,80.40
2018-02-08T00:25:18.952Z,80.40
2018-02-08T00:27:46.385Z,80.50
2018-02-08T00:30:13.828Z,80.50
2018-02-08T00:32:42.032Z,80.50
2018-02-08T00:35:09.500Z,80.50
2018-02-08T00:37:36.949Z,80.50
2018-02-08T00:40:04.385Z,80.60
2018-02-08T00:42:31.811Z,80.60
2018-02-08T00:44:59.328Z,80.60
2018-02-08T00:47:26.784Z,80.70
2018-02-08T00:49:54.214Z,80.80
2018-02-08T00:52:21.663Z,80.80
2018-02-08T00:54:49.158Z,80.90
2018-02-08T00:57:16.613Z,80.90
2018-02-08T00:59:44.060Z,80.90
2018-02-08T01:02:11.505Z,80.90
2018-02-08T01:04:38.940Z,81.50
2018-02-08T01:07:07.264Z,80.90
2018-02-08T01:09:34.724Z,80.90
2018-02-08T01:12:02.269Z,80.90
2018-02-08T01:14:29.740Z,81.00
2018-02-08T01:16:57.183Z,80.90
2018-02-08T01:19:24.626Z,80.90
2018-02-08T01:21:52.107Z,81.00
2018-02-08T01:24:19.552Z,81.00
2018-02-08T01:26:47.140Z,81.70
2018-02-08T01:29:14.785Z,81.00
2018-02-08T01:31:42.245Z,81.00
2018-02-08T01:34:09.696Z,81.00
2018-02-08T01:36:37.263Z,81.00
2018-02-08T01:39:04.703Z,81.00
2018-02-08T01:41:32.182Z,81.00
2018-02-08T01:43:59.787Z,81.00
2018-02-08T01:46:28.032Z,81.10
2018-02-08T01:48:55.714Z,81.00
2018-02-08T01:51:23.151Z,81.10
2018-02-08T01:53:50.708Z,81.10
2018-02-08T01:56:18.147Z,81.10
2018-02-08T01:58:45.696Z,81.10
2018-02-08T02:01:13.160Z,81.20
2018-02-08T02:03:40.611Z,81.20
2018-02-08T02:06:08.076Z,81.20
2018-02-08T02:08:35.556Z,81.80
2018-02-08T02:11:02.996Z,81.00
2018-02-08T02:13:30.580Z,81.00
2018-02-08T02:15:58.009Z,81.00
2018-02-08T02:18:25.552Z,81.00
2018-02-08T02:20:53.124Z,80.90
2018-02-08T02:23:20.556Z,80.90
2018-02-08T02:25:48.042Z,80.80
2018-02-08T02:28:15.684Z,80.70
2018-02-08T02:30:43.096Z,80.70
2018-02-08T02:33:11.320Z,80.60
2018-02-08T02:35:38.774Z,80.70
2018-02-08T02:38:06.239Z,80.60
2018-02-08T02:40:33.670Z,80.60
2018-02-08T02:43:01.112Z,80.60
2018-02-08T02:45:28.540Z,80.60
2018-02-08T02:47:55.977Z,80.50
2018-02-08T02:50:23.508Z,81.00
2018-02-08T02:52:50.978Z,80.50
2018-02-08T02:55:18.411Z,80.50
2018-02-08T02:57:46.003Z,80.50
2018-02-08T03:00:13.438Z,80.50
2018-02-08T03:02:40.874Z,80.50
2018-02-08T03:05:08.316Z,80.50
2018-02-08T03:07:36.517Z,80.60
2018-02-08T03:10:03.992Z,80.50
2018-02-08T03:12:31.432Z,80.50
2018-02-08T03:14:58.875Z,80.50
2018-02-08T03:17:26.312Z,80.50
2018-02-08T03:19:54.564Z,81.20
2018-02-08T03:22:21.997Z,80.50
2018-02-08T03:24:49.432Z,80.50
2018-02-08T03:27:16.901Z,80.50
2018-02-08T03:29:44.310Z,80.50
2018-02-08T03:32:11.740Z,80.60
2018-02-08T03:34:39.193Z,80.60
2018-02-08T03:37:06.633Z,80.60
2018-02-08T03:39:34.094Z,80.60
2018-02-08T03:42:01.660Z,80.60
2018-02-08T03:44:29.100Z,80.70
2018-02-08T03:46:56.531Z,80.70
2018-02-08T03:49:24.747Z,80.70
2018-02-08T03:51:52.196Z,80.70
2018-02-08T03:54:19.636Z,80.70
2018-02-08T03:56:47.090Z,80.70
2018-02-08T03:59:14.666Z,80.70
2018-02-08T04:01:42.084Z,80.70
2018-02-08T04:04:10.427Z,80.80
2018-02-08T04:06:37.971Z,80.70
2018-02-08T04:09:05.519Z,80.70
2018-02-08T04:11:32.995Z,80.70
2018-02-08T04:14:00.536Z,80.80
2018-02-08T04:16:27.943Z,80.80
2018-02-08T04:18:55.600Z,80.80
2018-02-08T04:21:23.040Z,80.90
2018-02-08T04:23:50.479Z,81.10
2018-02-08T04:26:17.936Z,81.10
2018-02-08T04:28:45.396Z,81.10
2018-02-08T04:31:12.835Z,81.10
2018-02-08T04:33:40.302Z,81.20
2018-02-08T04:36:07.739Z,81.30
2018-02-08T04:38:47.163Z,81.30
2018-02-08T04:41:27.385Z,81.30
2018-02-08T04:44:16.623Z,81.30
2018-02-08T04:47:07.018Z,81.30
2018-02-08T04:49:34.476Z,81.20
2018-02-08T04:52:01.926Z,81.10
2018-02-08T04:54:29.389Z,81.30
2018-02-08T04:56:56.876Z,81.30
2018-02-08T04:59:24.403Z,81.40
2018-02-08T05:01:51.851Z,81.40
2018-02-08T05:04:19.412Z,81.40
2018-02-08T05:06:46.876Z,81.40
2018-02-08T05:09:14.337Z,81.40
2018-02-08T05:11:41.781Z,81.40
2018-02-08T05:14:09.212Z,81.40
2018-02-08T05:16:36.712Z,81.40
2018-02-08T05:19:04.253Z,81.40
2018-02-08T05:21:31.730Z,81.40
2018-02-08T05:23:59.170Z,81.40
2018-02-08T05:26:26.739Z,81.40
2018-02-08T05:28:54.171Z,81.40
2018-02-08T05:31:21.596Z,82.00
2018-02-08T05:33:49.049Z,81.50
2018-02-08T05:36:16.561Z,81.50
2018-02-08T05:38:44.036Z,82.20
2018-02-08T05:41:11.585Z,81.50
2018-02-08T05:43:39.020Z,81.50
2018-02-08T05:46:06.500Z,81.60
2018-02-08T05:48:33.975Z,81.60
2018-02-08T05:51:01.524Z,81.70
2018-02-08T05:53:28.959Z,81.80
2018-02-08T05:55:56.396Z,81.80
2018-02-08T05:58:24.598Z,81.90
2018-02-08T06:00:52.028Z,82.00
2018-02-08T06:03:19.468Z,82.00
2018-02-08T06:05:47.693Z,82.00
2018-02-08T06:08:15.154Z,82.00
2018-02-08T06:10:42.701Z,82.00
2018-02-08T06:13:10.172Z,82.00
2018-02-08T06:15:37.604Z,82.00
2018-02-08T06:18:05.052Z,82.00
2018-02-08T06:20:32.484Z,81.90
2018-02-08T06:23:00.089Z,81.90
2018-02-08T06:25:27.560Z,81.80
2018-02-08T06:27:55.007Z,81.70
2018-02-08T06:30:22.431Z,81.70
2018-02-08T06:32:49.872Z,81.60
2018-02-08T06:35:18.109Z,82.20
2018-02-08T06:37:45.569Z,81.50
2018-02-08T06:40:13.122Z,81.50
2018-02-08T06:42:40.555Z,81.40
2018-02-08T06:45:07.984Z,81.40
2018-02-08T06:47:36.795Z,81.30
2018-02-08T06:50:04.220Z,81.90
2018-02-08T06:52:32.453Z,81.50
2018-02-08T06:54:59.897Z,81.10
2018-02-08T06:57:27.377Z,81.00
2018-02-08T06:59:54.812Z,80.90
2018-02-08T07:02:22.252Z,80.90
2018-02-08T07:04:49.743Z,80.80
2018-02-08T07:07:17.168Z,80.70
2018-02-08T07:09:44.650Z,80.70
2018-02-08T07:12:12.111Z,80.60
2018-02-08T07:14:39.540Z,80.50
2018-02-08T07:17:06.988Z,80.50
2018-02-08T07:19:34.449Z,80.40
2018-02-08T07:22:01.884Z,80.30
2018-02-08T07:24:30.204Z,80.30
2018-02-08T07:26:57.616Z,80.20
2018-02-08T07:29:25.120Z,80.30
2018-02-08T07:31:52.547Z,80.20
2018-02-08T07:34:20.853Z,80.10
2018-02-08T07:36:48.309Z,80.10
2018-02-08T07:39:15.730Z,80.00
2018-02-08T07:41:43.954Z,80.00
2018-02-08T07:44:11.412Z,80.00
2018-02-08T07:46:38.858Z,79.80
2018-02-08T07:49:06.336Z,79.80
2018-02-08T07:51:33.756Z,79.60
2018-02-08T07:54:01.237Z,79.60
2018-02-08T07:56:28.663Z,79.60
2018-02-08T07:58:56.152Z,79.50
2018-02-08T08:01:23.592Z,79.30
2018-02-08T08:03:51.075Z,79.20
2018-02-08T08:06:18.511Z,79.20
2018-02-08T08:08:45.983Z,79.10
2018-02-08T08:11:13.415Z,78.80
2018-02-08T08:13:40.852Z,78.70
2018-02-08T08:16:09.070Z,78.40
2018-02-08T08:18:36.504Z,78.40
2018-02-08T08:21:03.977Z,78.10
2018-02-08T08:23:31.599Z,78.00
2018-02-08T08:25:59.788Z,77.70
2018-02-08T08:28:27.273Z,77.60
2018-02-08T08:30:54.754Z,77.40
2018-02-08T08:33:22.184Z,77.20
2018-02-08T08:35:49.612Z,77.10
2018-02-08T08:38:17.058Z,77.00
2018-02-08T08:40:45.254Z,76.80
2018-02-08T08:43:12.687Z,76.80
2018-02-08T08:45:40.900Z,76.80
2018-02-08T08:48:08.331Z,76.80
2018-02-08T08:50:35.768Z,76.80
2018-02-08T08:53:03.277Z,76.80
2018-02-08T08:55:30.720Z,76.70
2018-02-08T08:57:58.188Z,76.80
2018-02-08T09:00:25.659Z,76.60
2018-02-08T09:02:53.090Z,76.50
2018-02-08T09:05:20.567Z,76.30
2018-02-08T09:07:48.019Z,76.30
2018-02-08T09:10:15.482Z,76.10
2018-02-08T09:12:42.916Z,75.90
2018-02-08T09:15:10.365Z,75.80
2018-02-08T09:17:37.820Z,75.60
2018-02-08T09:20:05.304Z,75.40
2018-02-08T09:22:32.754Z,75.10
2018-02-08T09:25:00.179Z,75.00
2018-02-08T09:27:28.408Z,74.70
2018-02-08T09:29:55.845Z,74.60
2018-02-08T09:32:23.312Z,74.40
2018-02-08T09:34:50.740Z,74.00
2018-02-08T09:37:19.035Z,73.50
2018-02-08T09:39:46.459Z,73.50
2018-02-08T09:42:13.958Z,73.10
2018-02-08T09:44:41.412Z,73.00
2018-02-08T09:47:08.876Z,72.90
2018-02-08T09:49:36.323Z,72.80
2018-02-08T09:52:03.792Z,72.50
2018-02-08T09:54:32.005Z,72.60
2018-02-08T09:56:59.432Z,72.30
2018-02-08T09:59:27.739Z,72.20
2018-02-08T10:01:55.151Z,72.20
2018-02-08T10:04:23.352Z,72.20
2018-02-08T10:06:50.930Z,72.20
2018-02-08T10:09:18.352Z,72.10
2018-02-08T10:11:46.563Z,72.10
2018-02-08T10:14:14.000Z,72.00
2018-02-08T10:16:41.432Z,71.80
2018-02-08T10:19:09.634Z,71.70
2018-02-08T10:21:37.111Z,71.70
2018-02-08T10:24:04.568Z,71.50
2018-02-08T10:26:32.024Z,71.40
2018-02-08T10:28:59.475Z,71.10
2018-02-08T10:31:26.909Z,70.80
2018-02-08T10:33:55.124Z,70.50
2018-02-08T10:36:22.564Z,70.40
2018-02-08T10:38:49.996Z,70.50
2018-02-08T10:41:17.587Z,70.50
2018-02-08T10:43:45.048Z,70.70
2018-02-08T10:46:12.490Z,70.60
2018-02-08T10:48:39.915Z,70.70
2018-02-08T10:51:08.125Z,70.70
2018-02-08T10:53:35.549Z,70.70
2018-02-08T10:56:03.773Z,70.50
2018-02-08T10:58:31.218Z,70.50
2018-02-08T11:00:58.645Z,70.60
2018-02-08T11:03:26.860Z,70.50
2018-02-08T11:05:54.343Z,70.50
2018-02-08T11:08:21.768Z,70.50
2018-02-08T11:10:49.218Z,70.50
2018-02-08T11:13:16.641Z,70.30
2018-02-08T11:15:44.863Z,70.20
2018-02-08T11:18:12.296Z,70.20
2018-02-08T11:20:39.763Z,70.20
2018-02-08T11:23:07.177Z,70.20
2018-02-08T11:25:35.498Z,69.90
2018-02-08T11:28:02.960Z,69.80
2018-02-08T11:30:30.396Z,69.40
2018-02-08T11:32:57.880Z,69.20
2018-02-08T11:35:25.364Z,69.20
2018-02-08T11:37:52.800Z,69.30
2018-02-08T11:40:20.248Z,69.30
2018-02-08T11:42:47.696Z,69.30
2018-02-08T11:45:15.133Z,69.40
2018-02-08T11:47:42.565Z,69.40
2018-02-08T11:50:10.888Z,69.60
2018-02-08T11:52:38.350Z,69.30
2018-02-08T11:55:05.810Z,69.40
2018-02-08T11:57:33.365Z,69.20
2018-02-08T12:00:00.772Z,69.20
2018-02-08T12:02:28.964Z,70.20
2018-02-08T12:04:56.420Z,69.40
2018-02-08T12:07:24.623Z,69.60
2018-02-08T12:09:52.100Z,69.60
2018-02-08T12:12:19.547Z,69.60
2018-02-08T12:14:47.009Z,69.70
2018-02-08T12:17:14.433Z,69.70
2018-02-08T12:19:41.873Z,69.80
2018-02-08T12:22:10.082Z,70.00
2018-02-08T12:24:37.504Z,70.00
2018-02-08T12:27:05.713Z,69.80
2018-02-08T12:29:33.136Z,69.80
2018-02-08T12:32:01.366Z,69.20
2018-02-08T12:34:28.854Z,69.20
2018-02-08T12:36:56.242Z,69.30
2018-02-08T12:39:23.736Z,69.30
2018-02-08T12:41:51.280Z,69.30
2018-02-08T12:44:18.716Z,69.50
2018-02-08T12:46:46.144Z,69.60
2018-02-08T12:49:14.372Z,70.20
2018-02-08T12:51:41.807Z,69.80
2018-02-08T12:54:09.231Z,69.90
2018-02-08T12:56:37.459Z,70.60
2018-02-08T12:59:04.920Z,70.00
2018-02-08T13:01:32.356Z,70.00
2018-02-08T13:03:59.789Z,70.00
2018-02-08T13:06:27.980Z,70.00
2018-02-08T13:08:55.467Z,70.00
2018-02-08T13:11:22.909Z,70.20
2018-02-08T13:13:50.433Z,70.20
2018-02-08T13:16:17.812Z,70.20
2018-02-08T13:18:45.300Z,70.30
2018-02-08T13:21:12.845Z,70.50
2018-02-08T13:23:40.348Z,70.60
2018-02-08T13:26:07.878Z,70.70
2018-02-08T13:28:35.300Z,70.70
2018-02-08T13:31:02.734Z,70.80
2018-02-08T13:33:30.940Z,70.80
2018-02-08T13:35:58.360Z,70.80
2018-02-08T13:38:26.580Z,71.80
2018-02-08T13:40:55.529Z,71.00
2018-02-08T13:43:23.751Z,71.90
2018-02-08T13:45:51.188Z,71.10
2018-02-08T13:48:33.416Z,71.20
2018-02-08T13:51:20.683Z,71.10
2018-02-08T13:53:54.573Z,71.30
2018-02-08T13:56:36.880Z,71.20
2018-02-08T13:59:21.122Z,71.40
2018-02-08T14:01:51.014Z,71.50
2018-02-08T14:04:18.567Z,71.60
2018-02-08T14:06:45.980Z,71.60
2018-02-08T14:09:17.918Z,71.60
2018-02-08T14:11:45.349Z,71.50
2018-02-08T14:14:12.903Z,71.50
2018-02-08T14:16:40.463Z,71.60
2018-02-08T14:19:07.872Z,71.50
2018-02-08T14:21:36.076Z,71.70
2018-02-08T14:24:03.549Z,71.70
2018-02-08T14:26:30.952Z,71.60
2018-02-08T14:28:59.160Z,71.10
2018-02-08T14:31:26.637Z,71.60
2018-02-08T14:33:54.092Z,71.80
2018-02-08T14:36:21.536Z,71.90
2018-02-08T14:38:48.960Z,72.40
2018-02-08T14:41:17.167Z,73.60
2018-02-08T14:43:44.648Z,73.30
2018-02-08T14:46:12.104Z,73.40
2018-02-08T14:48:39.540Z,73.30
2018-02-08T14:51:06.977Z,73.10
2018-02-08T14:53:35.171Z,73.20
2018-02-08T14:56:02.600Z,73.20
2018-02-08T14:58:30.801Z,73.60
2018-02-08T15:00:58.379Z,73.60
2018-02-08T15:03:25.816Z,73.80
2018-02-08T15:05:53.521Z,74.60
2018-02-08T15:08:20.950Z,74.10
2018-02-08T15:10:48.386Z,74.40
2018-02-08T15:13:15.844Z,74.40
2018-02-08T15:15:43.280Z,74.60
2018-02-08T15:18:11.477Z,75.00
2018-02-08T15:20:38.919Z,75.00
2018-02-08T15:23:07.122Z,75.10
2018-02-08T15:25:34.599Z,75.10
2018-02-08T15:28:02.048Z,75.30
2018-02-08T15:30:29.468Z,75.50
2018-02-08T15:32:57.668Z,76.10
2018-02-08T15:35:25.124Z,76.10
2018-02-08T15:37:52.551Z,76.10
2018-02-08T15:40:20.753Z,76.60
2018-02-08T15:42:48.251Z,76.70
2018-02-08T15:45:15.674Z,76.70
2018-02-08T15:47:43.144Z,76.60
2018-02-08T15:50:10.592Z,76.60
2018-02-08T15:52:38.047Z,76.70
2018-02-08T15:55:05.480Z,76.80
2018-02-08T15:57:33.782Z,76.90
2018-02-08T16:00:01.200Z,76.80
2018-02-08T16:02:29.419Z,76.70
2018-02-08T16:04:56.897Z,76.50
2018-02-08T16:07:24.327Z,76.50
2018-02-08T16:09:51.761Z,76.50
2018-02-08T16:12:19.207Z,76.60
2018-02-08T16:14:47.436Z,76.90
2018-02-08T16:17:14.874Z,76.80
2018-02-08T16:19:42.344Z,76.90
2018-02-08T16:22:09.772Z,77.10
2018-02-08T16:24:37.347Z,77.30
2018-02-08T16:27:04.812Z,77.40
2018-02-08T16:29:32.271Z,77.60
2018-02-08T16:31:59.715Z,77.80
2018-02-08T16:34:27.285Z,77.90
2018-02-08T16:36:54.728Z,78.10
2018-02-08T16:39:22.136Z,78.30
2018-02-08T16:41:49.585Z,78.50
2018-02-08T16:44:18.585Z,78.90
2018-02-08T16:46:45.960Z,78.80
2018-02-08T16:49:14.289Z,79.20
2018-02-08T16:51:41.724Z,79.20
2018-02-08T16:54:09.203Z,79.30
2018-02-08T16:56:36.792Z,79.50
2018-02-08T16:59:04.240Z,79.60
2018-02-08T17:01:31.612Z,79.70
2018-02-08T17:03:59.061Z,80.00
2018-02-08T17:06:26.528Z,80.10
2018-02-08T17:08:53.981Z,80.20
2018-02-08T17:11:21.530Z,81.10
2018-02-08T17:13:48.959Z,80.50
2018-02-08T17:16:16.394Z,80.60
2018-02-08T17:18:44.868Z,80.80
2018-02-08T17:21:12.302Z,80.90
2018-02-08T17:23:39.773Z,81.00
2018-02-08T17:26:07.982Z,81.30
2018-02-08T17:28:35.449Z,81.30
2018-02-08T17:31:02.873Z,81.40
2018-02-08T17:33:30.312Z,81.40
2018-02-08T17:35:58.530Z,81.70
2018-02-08T17:38:25.964Z,81.60
2018-02-08T17:40:53.420Z,81.70
2018-02-08T17:43:20.856Z,81.80
2018-02-08T17:45:49.179Z,81.80
2018-02-08T17:48:16.637Z,81.80
2018-02-08T17:50:44.044Z,81.90
2018-02-08T17:53:12.271Z,82.00
2018-02-08T17:55:39.752Z,82.00
2018-02-08T17:58:07.176Z,82.10
2018-02-08T18:00:34.679Z,82.30
2018-02-08T18:03:02.116Z,83.00
2018-02-08T18:05:29.548Z,82.40
2018-02-08T18:07:56.976Z,82.50
2018-02-08T18:10:24.465Z,82.50
2018-02-08T18:12:51.896Z,82.60
2018-02-08T18:15:19.346Z,82.70
2018-02-08T18:17:47.544Z,82.90
2018-02-08T18:20:15.035Z,82.90
2018-02-08T18:22:42.462Z,83.00
2018-02-08T18:25:09.944Z,83.10
2018-02-08T18:27:37.372Z,83.20
2018-02-08T18:30:04.797Z,83.30
2018-02-08T18:32:33.124Z,83.60
2018-02-08T18:35:00.550Z,83.60
2018-02-08T18:37:27.979Z,83.60
2018-02-08T18:39:56.202Z,83.80
2018-02-08T18:42:23.668Z,83.80
2018-02-08T18:44:51.189Z,84.00
2018-02-08T18:47:18.669Z,84.00
2018-02-08T18:49:46.084Z,84.10
2018-02-08T18:52:14.308Z,84.30
2018-02-08T18:54:41.757Z,84.30
2018-02-08T18:57:09.240Z,84.40
2018-02-08T18:59:36.800Z,84.50
2018-02-08T19:02:04.240Z,84.50
2018-02-08T19:04:31.699Z,84.60
2018-02-08T19:06:59.256Z,84.70
2018-02-08T19:09:26.732Z,84.80
2018-02-08T19:11:54.168Z,85.00
2018-02-08T19:14:21.633Z,85.00
2018-02-08T19:16:49.085Z,85.10
2018-02-08T19:19:16.531Z,85.20
2018-02-08T19:21:43.957Z,85.30
2018-02-08T19:24:12.277Z,85.50
2018-02-08T19:26:39.768Z,85.50
2018-02-08T19:29:07.200Z,85.50
2018-02-08T19:31:34.646Z,85.60
2018-02-08T19:34:02.095Z,86.70
2018-02-08T19:36:29.507Z,86.80
2018-02-08T19:38:57.720Z,86.70
2018-02-08T19:41:25.139Z,86.70
2018-02-08T19:43:53.384Z,86.50
2018-02-08T19:46:20.966Z,86.40
2018-02-08T19:48:48.584Z,86.40
2018-02-08T19:51:15.993Z,86.50
2018-02-08T19:53:44.208Z,86.50
2018-02-08T19:56:11.636Z,86.40
2018-02-08T19:58:39.844Z,86.40
2018-02-08T20:01:07.308Z,86.40
2018-02-08T20:03:34.857Z,86.40
2018-02-08T20:06:02.264Z,86.50
2018-02-08T20:08:29.808Z,86.60
2018-02-08T20:10:57.184Z,87.10
2018-02-08T20:13:25.409Z,86.60
2018-02-08T20:15:52.864Z,86.60
2018-02-08T20:18:20.329Z,86.50
2018-02-08T20:20:47.790Z,86.60
2018-02-08T20:23:15.235Z,86.70
2018-02-08T20:25:42.666Z,86.80
2018-02-08T20:28:10.091Z,86.80
2018-02-08T20:30:37.536Z,86.80
2018-02-08T20:33:04.968Z,86.90
2018-02-08T20:35:32.400Z,87.00
2018-02-08T20:37:59.884Z,87.10
2018-02-08T20:40:29.906Z,87.10
2018-02-08T20:43:02.952Z,87.20
2018-02-08T20:45:30.397Z,87.20
2018-02-08T20:47:58.619Z,87.40
2018-02-08T20:50:26.065Z,87.40
2018-02-08T20:52:53.504Z,87.40
2018-02-08T20:55:20.952Z,87.40
2018-02-08T20:57:49.169Z,87.50
2018-02-08T21:00:16.620Z,87.50
2018-02-08T21:02:44.068Z,87.60
2018-02-08T21:05:11.536Z,87.50
2018-02-08T21:07:38.972Z,87.60
2018-02-08T21:10:06.449Z,87.60
2018-02-08T21:12:34.010Z,87.70
2018-02-08T21:15:01.441Z,87.70
2018-02-08T21:17:28.877Z,87.70
2018-02-08T21:19:57.190Z,87.80
2018-02-08T21:22:24.664Z,87.70
2018-02-08T21:24:52.128Z,87.90
2018-02-08T21:27:19.588Z,87.80
2018-02-08T21:29:47.041Z,87.80
2018-02-08T21:32:14.476Z,87.90
2018-02-08T21:34:41.951Z,87.90
2018-02-08T21:37:09.396Z,87.90
2018-02-08T21:39:36.884Z,87.90
2018-02-08T21:42:04.335Z,88.00
2018-02-08T21:44:31.877Z,88.10
2018-02-08T21:46:59.346Z,88.10
2018-02-08T21:49:26.896Z,88.10
2018-02-08T21:51:54.367Z,88.10
2018-02-08T21:54:21.806Z,88.10
2018-02-08T21:56:49.256Z,88.10
2018-02-08T21:59:16.688Z,88.10
2018-02-08T22:01:44.168Z,88.10
2018-02-08T22:04:11.620Z,88.20
2018-02-08T22:06:39.052Z,88.30
2018-02-08T22:09:06.536Z,88.30
2018-02-08T22:11:34.036Z,88.30
2018-02-08T22:14:01.569Z,88.30
2018-02-08T22:16:29.116Z,89.00
2018-02-08T22:18:56.610Z,88.30
2018-02-08T22:21:24.480Z,88.40
2018-02-08T22:23:57.883Z,88.30
2018-02-08T22:26:26.080Z,88.80
2018-02-08T22:28:53.591Z,88.30
2018-02-08T22:31:21.178Z,88.40
2018-02-08T22:33:49.501Z,88.40
2018-02-08T22:36:16.915Z,88.40
2018-02-08T22:38:45.131Z,88.50
2018-02-08T22:41:12.588Z,88.50
2018-02-08T22:43:40.085Z,88.50
2018-02-08T22:46:07.531Z,88.60
2018-02-08T22:48:34.986Z,88.50
2018-02-08T22:51:02.536Z,88.70
2018-02-08T22:53:29.991Z,88.70
2018-02-08T22:55:57.432Z,88.70
2018-02-08T22:58:24.873Z,88.70
2018-02-08T23:00:52.345Z,88.70
2018-02-08T23:03:19.855Z,88.50
2018-02-08T23:05:47.290Z,88.60
2018-02-08T23:08:14.739Z,88.40
2018-02-08T23:10:42.190Z,88.40
2018-02-08T23:13:09.616Z,88.40
2018-02-08T23:15:37.089Z,88.30
2018-02-08T23:18:04.556Z,88.20
2018-02-08T23:20:32.015Z,88.20
2018-02-08T23:22:59.463Z,88.20
2018-02-08T23:25:26.926Z,88.20
2018-02-08T23:27:54.358Z,88.20
2018-02-08T23:30:21.812Z,88.10
2018-02-08T23:32:49.256Z,88.10
2018-02-08T23:35:17.496Z,88.00
2018-02-08T23:37:44.946Z,88.00
2018-02-08T23:40:12.487Z,87.90
2018-02-08T23:42:39.920Z,87.80
2018-02-08T23:45:07.373Z,87.80
2018-02-08T23:47:34.808Z,87.80
2018-02-08T23:50:03.026Z,87.70
2018-02-08T23:52:30.505Z,87.70
2018-02-08T23:54:57.939Z,87.60
2018-02-08T23:57:25.410Z,87.50
2018-02-08T23:59:52.963Z,87.50
